sensor_id;sensor_type;location;lat;lon;timestamp;temperature;humidity
12434;DHT22;6281;49.038;8.372;2023-02-08T00:00:58;-0.80;99.90
12434;DHT22;6281;49.038;8.372;2023-02-08T00:03:25;-0.80;99.90
12434;DHT22;6281;49.038;8.372;2023-02-08T00:05:53;-0.90;99.90
12434;DHT22;6281;49.038;8.372;2023-02-08T00:08:20;-0.80;99.90
12434;DHT22;6281;49.038;8.372;2023-02-08T00:10:48;-0.80;99.90
12434;DHT22;6281;49.038;8.372;2023-02-08T00:13:15;-0.80;99.90
12434;DHT22;6281;49.038;8.372;2023-02-08T00:15:43;-0.70;99.90
12434;DHT22;6281;49.038;8.372;2023-02-08T00:18:10;-0.80;99.90
12434;DHT22;6281;49.038;8.372;2023-02-08T00:20:37;-0.90;99.90
12434;DHT22;6281;49.038;8.372;2023-02-08T00:23:04;-0.90;99.90
12434;DHT22;6281;49.038;8.372;2023-02-08T00:25:31;-0.80;99.90
12434;DHT22;6281;49.038;8.372;2023-02-08T00:28:00;-0.80;99.90
12434;DHT22;6281;49.038;8.372;2023-02-08T00:30:27;-0.90;99.90
12434;DHT22;6281;49.038;8.372;2023-02-08T00:32:53;-0.90;99.90
12434;DHT22;6281;49.038;8.372;2023-02-08T00:35:20;-0.90;99.90
12434;DHT22;6281;49.038;8.372;2023-02-08T00:37:47;-0.80;99.90
12434;DHT22;6281;49.038;8.372;2023-02-08T00:40:15;-0.80;99.90
12434;DHT22;6281;49.038;8.372;2023-02-08T00:42:42;-0.90;99.90
12434;DHT22;6281;49.038;8.372;2023-02-08T00:45:10;-1.00;99.90
12434;DHT22;6281;49.038;8.372;2023-02-08T00:47:37;-1.00;99.90
12434;DHT22;6281;49.038;8.372;2023-02-08T00:50:05;-1.00;99.90
12434;DHT22;6281;49.038;8.372;2023-02-08T00:52:32;-0.80;99.90
12434;DHT22;6281;49.038;8.372;2023-02-08T00:54:59;-0.80;99.90
12434;DHT22;6281;49.038;8.372;2023-02-08T00:57:26;-0.80;99.90
12434;DHT22;6281;49.038;8.372;2023-02-08T00:59:55;-0.90;99.90
12434;DHT22;6281;49.038;8.372;2023-02-08T01:02:23;-0.90;99.90
12434;DHT22;6281;49.038;8.372;2023-02-08T01:04:50;-0.90;99.90
12434;DHT22;6281;49.038;8.372;2023-02-08T01:07:17;-1.00;99.90
12434;DHT22;6281;49.038;8.372;2023-02-08T01:09:44;-1.00;99.90
12434;DHT22;6281;49.038;8.372;2023-02-08T01:12:11;-1.00;99.90
12434;DHT22;6281;49.038;8.372;2023-02-08T01:14:38;-1.00;99.90
12434;DHT22;6281;49.038;8.372;2023-02-08T01:17:05;-1.00;99.90
12434;DHT22;6281;49.038;8.372;2023-02-08T01:19:34;-0.90;99.90
12434;DHT22;6281;49.038;8.372;2023-02-08T01:22:01;-0.80;99.90
12434;DHT22;6281;49.038;8.372;2023-02-08T01:24:28;-0.80;99.90
12434;DHT22;6281;49.038;8.372;2023-02-08T01:26:54;-0.90;99.90
12434;DHT22;6281;49.038;8.372;2023-02-08T01:29:21;-0.90;99.90
12434;DHT22;6281;49.038;8.372;2023-02-08T01:31:48;-0.80;99.90
12434;DHT22;6281;49.038;8.372;2023-02-08T01:34:15;-0.90;99.90
12434;DHT22;6281;49.038;8.372;2023-02-08T01:36:44;-0.90;99.90
12434;DHT22;6281;49.038;8.372;2023-02-08T01:39:11;-0.90;99.90
12434;DHT22;6281;49.038;8.372;2023-02-08T01:41:41;-1.00;99.90
12434;DHT22;6281;49.038;8.372;2023-02-08T01:47:10;-1.10;99.90
12434;DHT22;6281;49.038;8.372;2023-02-08T01:49:37;-1.10;99.90
12434;DHT22;6281;49.038;8.372;2023-02-08T01:52:09;-1.00;99.90
12434;DHT22;6281;49.038;8.372;2023-02-08T01:54:39;-1.00;99.90
12434;DHT22;6281;49.038;8.372;2023-02-08T01:57:08;-1.10;99.90
12434;DHT22;6281;49.038;8.372;2023-02-08T01:59:38;-1.00;99.90
12434;DHT22;6281;49.038;8.372;2023-02-08T02:02:10;-1.10;99.90
12434;DHT22;6281;49.038;8.372;2023-02-08T02:04:45;-1.10;99.90
12434;DHT22;6281;49.038;8.372;2023-02-08T02:07:15;-1.10;99.90
12434;DHT22;6281;49.038;8.372;2023-02-08T02:09:46;-1.10;99.90
12434;DHT22;6281;49.038;8.372;2023-02-08T02:12:15;-1.20;99.90
12434;DHT22;6281;49.038;8.372;2023-02-08T02:14:44;-1.20;99.90
12434;DHT22;6281;49.038;8.372;2023-02-08T02:17:12;-1.20;99.90
12434;DHT22;6281;49.038;8.372;2023-02-08T02:19:44;-1.20;99.90
12434;DHT22;6281;49.038;8.372;2023-02-08T02:22:47;-1.20;99.90
12434;DHT22;6281;49.038;8.372;2023-02-08T02:25:41;-1.10;99.90
12434;DHT22;6281;49.038;8.372;2023-02-08T02:28:31;-1.10;99.90
12434;DHT22;6281;49.038;8.372;2023-02-08T02:31:43;-1.20;99.90
12434;DHT22;6281;49.038;8.372;2023-02-08T02:34:18;-1.10;99.90
12434;DHT22;6281;49.038;8.372;2023-02-08T02:36:51;-1.20;99.90
12434;DHT22;6281;49.038;8.372;2023-02-08T02:39:25;-1.20;99.90
12434;DHT22;6281;49.038;8.372;2023-02-08T02:42:00;-1.10;99.90
12434;DHT22;6281;49.038;8.372;2023-02-08T02:44:52;-1.30;99.90
12434;DHT22;6281;49.038;8.372;2023-02-08T02:47:30;-1.20;99.90
12434;DHT22;6281;49.038;8.372;2023-02-08T02:50:02;-1.30;99.90
12434;DHT22;6281;49.038;8.372;2023-02-08T02:52:36;-1.20;99.90
12434;DHT22;6281;49.038;8.372;2023-02-08T02:55:07;-1.20;99.90
12434;DHT22;6281;49.038;8.372;2023-02-08T02:57:35;-1.20;99.90
12434;DHT22;6281;49.038;8.372;2023-02-08T03:00:07;-1.30;99.90
12434;DHT22;6281;49.038;8.372;2023-02-08T03:02:36;-1.30;99.90
12434;DHT22;6281;49.038;8.372;2023-02-08T03:05:06;-1.30;99.90
12434;DHT22;6281;49.038;8.372;2023-02-08T03:07:55;-1.30;99.90
12434;DHT22;6281;49.038;8.372;2023-02-08T03:10:48;-1.40;99.90
12434;DHT22;6281;49.038;8.372;2023-02-08T03:13:24;-1.40;99.90
12434;DHT22;6281;49.038;8.372;2023-02-08T03:16:01;-1.30;99.90
12434;DHT22;6281;49.038;8.372;2023-02-08T03:18:35;-1.40;99.90
12434;DHT22;6281;49.038;8.372;2023-02-08T03:21:08;-1.50;99.90
12434;DHT22;6281;49.038;8.372;2023-02-08T03:23:40;-1.40;99.90
12434;DHT22;6281;49.038;8.372;2023-02-08T03:26:15;-1.50;99.90
12434;DHT22;6281;49.038;8.372;2023-02-08T03:28:49;-1.50;99.90
12434;DHT22;6281;49.038;8.372;2023-02-08T03:31:25;-1.60;99.90
12434;DHT22;6281;49.038;8.372;2023-02-08T03:33:58;-1.60;99.90
12434;DHT22;6281;49.038;8.372;2023-02-08T03:36:32;-1.50;99.90
12434;DHT22;6281;49.038;8.372;2023-02-08T03:39:03;-1.50;99.90
12434;DHT22;6281;49.038;8.372;2023-02-08T03:41:36;-1.50;99.90
12434;DHT22;6281;49.038;8.372;2023-02-08T03:44:08;-1.50;99.90
12434;DHT22;6281;49.038;8.372;2023-02-08T03:46:37;-1.50;99.90
12434;DHT22;6281;49.038;8.372;2023-02-08T03:49:21;-1.50;99.90
12434;DHT22;6281;49.038;8.372;2023-02-08T03:51:49;-1.50;99.90
12434;DHT22;6281;49.038;8.372;2023-02-08T03:54:19;-1.50;99.90
12434;DHT22;6281;49.038;8.372;2023-02-08T03:56:53;-1.60;99.90
12434;DHT22;6281;49.038;8.372;2023-02-08T03:59:24;-1.60;99.90
12434;DHT22;6281;49.038;8.372;2023-02-08T04:01:55;-1.60;99.90
12434;DHT22;6281;49.038;8.372;2023-02-08T04:04:25;-1.60;99.90
12434;DHT22;6281;49.038;8.372;2023-02-08T04:06:53;-1.60;99.90
12434;DHT22;6281;49.038;8.372;2023-02-08T04:09:20;-1.60;99.90
12434;DHT22;6281;49.038;8.372;2023-02-08T04:11:46;-1.70;99.90
12434;DHT22;6281;49.038;8.372;2023-02-08T04:14:13;-1.70;99.90
12434;DHT22;6281;49.038;8.372;2023-02-08T04:16:40;-1.60;99.90
12434;DHT22;6281;49.038;8.372;2023-02-08T04:19:07;-1.70;99.90
12434;DHT22;6281;49.038;8.372;2023-02-08T04:21:35;-1.60;99.90
12434;DHT22;6281;49.038;8.372;2023-02-08T04:24:02;-1.70;99.90
12434;DHT22;6281;49.038;8.372;2023-02-08T04:26:28;-1.70;99.90
12434;DHT22;6281;49.038;8.372;2023-02-08T04:28:55;-1.70;99.90
12434;DHT22;6281;49.038;8.372;2023-02-08T04:31:22;-1.80;99.90
12434;DHT22;6281;49.038;8.372;2023-02-08T04:33:49;-1.80;99.90
12434;DHT22;6281;49.038;8.372;2023-02-08T04:36:16;-1.80;99.90
12434;DHT22;6281;49.038;8.372;2023-02-08T04:38:44;-2.00;99.90
12434;DHT22;6281;49.038;8.372;2023-02-08T04:41:11;-2.00;99.90
12434;DHT22;6281;49.038;8.372;2023-02-08T04:43:38;-1.90;99.90
12434;DHT22;6281;49.038;8.372;2023-02-08T04:46:13;-1.90;99.90
12434;DHT22;6281;49.038;8.372;2023-02-08T04:48:40;-1.80;99.90
12434;DHT22;6281;49.038;8.372;2023-02-08T04:51:07;-1.80;99.90
12434;DHT22;6281;49.038;8.372;2023-02-08T04:53:34;-1.80;99.90
12434;DHT22;6281;49.038;8.372;2023-02-08T04:56:02;-2.00;99.90
12434;DHT22;6281;49.038;8.372;2023-02-08T04:58:29;-2.00;99.90
12434;DHT22;6281;49.038;8.372;2023-02-08T05:00:56;-1.90;99.90
12434;DHT22;6281;49.038;8.372;2023-02-08T05:03:23;-1.90;99.90
12434;DHT22;6281;49.038;8.372;2023-02-08T05:05:55;-1.80;99.90
12434;DHT22;6281;49.038;8.372;2023-02-08T05:08:22;-1.70;99.90
12434;DHT22;6281;49.038;8.372;2023-02-08T05:10:49;-1.80;99.90
12434;DHT22;6281;49.038;8.372;2023-02-08T05:13:18;-1.80;99.90
12434;DHT22;6281;49.038;8.372;2023-02-08T05:15:45;-1.90;99.90
12434;DHT22;6281;49.038;8.372;2023-02-08T05:18:12;-1.90;99.90
12434;DHT22;6281;49.038;8.372;2023-02-08T05:20:38;-1.90;99.90
12434;DHT22;6281;49.038;8.372;2023-02-08T05:23:05;-2.10;99.90
12434;DHT22;6281;49.038;8.372;2023-02-08T05:25:32;-2.00;99.90
12434;DHT22;6281;49.038;8.372;2023-02-08T05:27:59;-1.90;99.90
12434;DHT22;6281;49.038;8.372;2023-02-08T05:30:28;-2.00;99.90
12434;DHT22;6281;49.038;8.372;2023-02-08T05:32:55;-1.90;99.90
12434;DHT22;6281;49.038;8.372;2023-02-08T05:35:22;-2.00;99.90
12434;DHT22;6281;49.038;8.372;2023-02-08T05:37:49;-2.10;99.90
12434;DHT22;6281;49.038;8.372;2023-02-08T05:40:16;-2.10;99.90
12434;DHT22;6281;49.038;8.372;2023-02-08T05:42:43;-2.00;99.90
12434;DHT22;6281;49.038;8.372;2023-02-08T05:45:12;-2.00;99.90
12434;DHT22;6281;49.038;8.372;2023-02-08T05:47:40;-2.00;99.90
12434;DHT22;6281;49.038;8.372;2023-02-08T05:50:08;-2.10;99.90
12434;DHT22;6281;49.038;8.372;2023-02-08T05:52:35;-2.10;99.90
12434;DHT22;6281;49.038;8.372;2023-02-08T05:55:02;-2.10;99.90
12434;DHT22;6281;49.038;8.372;2023-02-08T05:57:29;-2.20;99.90
12434;DHT22;6281;49.038;8.372;2023-02-08T05:59:56;-2.10;99.90
12434;DHT22;6281;49.038;8.372;2023-02-08T06:02:23;-2.10;99.90
12434;DHT22;6281;49.038;8.372;2023-02-08T06:04:51;-2.10;99.90
12434;DHT22;6281;49.038;8.372;2023-02-08T06:07:18;-2.00;99.90
12434;DHT22;6281;49.038;8.372;2023-02-08T06:09:45;-2.00;99.90
12434;DHT22;6281;49.038;8.372;2023-02-08T06:12:11;-2.00;99.90
12434;DHT22;6281;49.038;8.372;2023-02-08T06:14:38;-2.00;99.90
12434;DHT22;6281;49.038;8.372;2023-02-08T06:17:05;-2.10;99.90
12434;DHT22;6281;49.038;8.372;2023-02-08T06:19:32;-2.10;99.90
12434;DHT22;6281;49.038;8.372;2023-02-08T06:22:00;-2.00;99.90
12434;DHT22;6281;49.038;8.372;2023-02-08T06:24:26;-2.10;99.90
12434;DHT22;6281;49.038;8.372;2023-02-08T06:26:53;-2.00;99.90
12434;DHT22;6281;49.038;8.372;2023-02-08T06:29:20;-2.00;99.90
12434;DHT22;6281;49.038;8.372;2023-02-08T06:31:47;-2.00;99.90
12434;DHT22;6281;49.038;8.372;2023-02-08T06:34:13;-2.00;99.90
12434;DHT22;6281;49.038;8.372;2023-02-08T06:36:40;-1.90;99.90
12434;DHT22;6281;49.038;8.372;2023-02-08T06:39:08;-2.00;99.90
12434;DHT22;6281;49.038;8.372;2023-02-08T06:41:35;-2.10;99.90
12434;DHT22;6281;49.038;8.372;2023-02-08T06:44:02;-2.00;99.90
12434;DHT22;6281;49.038;8.372;2023-02-08T06:46:28;-2.00;99.90
12434;DHT22;6281;49.038;8.372;2023-02-08T06:48:55;-1.90;99.90
12434;DHT22;6281;49.038;8.372;2023-02-08T06:51:23;-1.90;99.90
12434;DHT22;6281;49.038;8.372;2023-02-08T06:53:50;-1.90;99.90
12434;DHT22;6281;49.038;8.372;2023-02-08T06:56:18;-1.80;99.90
12434;DHT22;6281;49.038;8.372;2023-02-08T06:58:45;-2.10;99.90
12434;DHT22;6281;49.038;8.372;2023-02-08T07:01:12;-2.00;99.90
12434;DHT22;6281;49.038;8.372;2023-02-08T07:03:39;-1.80;99.90
12434;DHT22;6281;49.038;8.372;2023-02-08T07:06:11;-1.80;99.90
12434;DHT22;6281;49.038;8.372;2023-02-08T07:08:38;-2.00;99.90
12434;DHT22;6281;49.038;8.372;2023-02-08T07:11:06;-2.00;99.90
12434;DHT22;6281;49.038;8.372;2023-02-08T07:13:35;-2.00;99.90
12434;DHT22;6281;49.038;8.372;2023-02-08T07:16:02;-2.00;99.90
12434;DHT22;6281;49.038;8.372;2023-02-08T07:18:29;-2.00;99.90
12434;DHT22;6281;49.038;8.372;2023-02-08T07:20:56;-1.90;99.90
12434;DHT22;6281;49.038;8.372;2023-02-08T07:23:23;-2.00;99.90
12434;DHT22;6281;49.038;8.372;2023-02-08T07:25:57;-2.00;99.90
12434;DHT22;6281;49.038;8.372;2023-02-08T07:28:24;-2.00;99.90
12434;DHT22;6281;49.038;8.372;2023-02-08T07:30:52;-1.80;99.90
12434;DHT22;6281;49.038;8.372;2023-02-08T07:33:20;-1.80;99.90
12434;DHT22;6281;49.038;8.372;2023-02-08T07:35:46;-1.80;99.90
12434;DHT22;6281;49.038;8.372;2023-02-08T07:38:13;-1.80;99.90
12434;DHT22;6281;49.038;8.372;2023-02-08T07:40:40;-1.60;99.90
12434;DHT22;6281;49.038;8.372;2023-02-08T07:43:07;-1.70;99.90
12434;DHT22;6281;49.038;8.372;2023-02-08T07:45:36;-1.60;99.90
12434;DHT22;6281;49.038;8.372;2023-02-08T07:48:04;-1.60;99.90
12434;DHT22;6281;49.038;8.372;2023-02-08T07:50:31;-1.60;99.90
12434;DHT22;6281;49.038;8.372;2023-02-08T07:52:58;-1.50;99.90
12434;DHT22;6281;49.038;8.372;2023-02-08T07:55:25;-1.40;99.90
12434;DHT22;6281;49.038;8.372;2023-02-08T07:57:54;-1.50;99.90
12434;DHT22;6281;49.038;8.372;2023-02-08T08:00:22;-1.50;99.90
12434;DHT22;6281;49.038;8.372;2023-02-08T08:02:49;-1.20;99.90
12434;DHT22;6281;49.038;8.372;2023-02-08T08:05:17;-1.30;99.90
12434;DHT22;6281;49.038;8.372;2023-02-08T08:07:45;-1.40;99.90
12434;DHT22;6281;49.038;8.372;2023-02-08T08:10:12;-1.30;99.90
12434;DHT22;6281;49.038;8.372;2023-02-08T08:12:38;-1.20;99.90
12434;DHT22;6281;49.038;8.372;2023-02-08T08:15:06;-1.10;99.90
12434;DHT22;6281;49.038;8.372;2023-02-08T08:17:33;-1.20;99.90
12434;DHT22;6281;49.038;8.372;2023-02-08T08:20:00;-1.00;99.90
12434;DHT22;6281;49.038;8.372;2023-02-08T08:22:28;-1.10;99.90
12434;DHT22;6281;49.038;8.372;2023-02-08T08:24:55;-1.00;99.90
12434;DHT22;6281;49.038;8.372;2023-02-08T08:27:23;-1.10;99.90
12434;DHT22;6281;49.038;8.372;2023-02-08T08:29:50;-0.80;99.90
12434;DHT22;6281;49.038;8.372;2023-02-08T08:32:17;-0.90;99.90
12434;DHT22;6281;49.038;8.372;2023-02-08T08:34:44;-0.70;99.90
12434;DHT22;6281;49.038;8.372;2023-02-08T08:37:11;-0.60;99.90
12434;DHT22;6281;49.038;8.372;2023-02-08T08:39:39;-0.60;99.90
12434;DHT22;6281;49.038;8.372;2023-02-08T08:42:06;-0.50;99.90
12434;DHT22;6281;49.038;8.372;2023-02-08T08:44:32;-0.60;99.90
12434;DHT22;6281;49.038;8.372;2023-02-08T08:47:00;-0.50;99.90
12434;DHT22;6281;49.038;8.372;2023-02-08T08:49:28;-0.40;99.90
12434;DHT22;6281;49.038;8.372;2023-02-08T08:51:55;-0.30;99.90
12434;DHT22;6281;49.038;8.372;2023-02-08T08:54:22;-0.10;99.90
12434;DHT22;6281;49.038;8.372;2023-02-08T08:56:50;0.30;99.90
12434;DHT22;6281;49.038;8.372;2023-02-08T08:59:17;1.10;99.90
12434;DHT22;6281;49.038;8.372;2023-02-08T09:01:44;0.80;99.90
12434;DHT22;6281;49.038;8.372;2023-02-08T09:04:11;0.40;99.90
12434;DHT22;6281;49.038;8.372;2023-02-08T09:06:38;0.50;99.90
12434;DHT22;6281;49.038;8.372;2023-02-08T09:09:05;1.70;99.90
12434;DHT22;6281;49.038;8.372;2023-02-08T09:11:32;2.90;99.90
12434;DHT22;6281;49.038;8.372;2023-02-08T09:14:02;2.90;99.90
12434;DHT22;6281;49.038;8.372;2023-02-08T09:16:30;2.90;99.90
12434;DHT22;6281;49.038;8.372;2023-02-08T09:18:59;1.90;99.90
12434;DHT22;6281;49.038;8.372;2023-02-08T09:21:26;1.10;99.90
12434;DHT22;6281;49.038;8.372;2023-02-08T09:23:53;2.10;99.90
12434;DHT22;6281;49.038;8.372;2023-02-08T09:26:21;3.30;99.90
12434;DHT22;6281;49.038;8.372;2023-02-08T09:28:49;3.90;99.90
12434;DHT22;6281;49.038;8.372;2023-02-08T09:31:20;3.90;99.90
12434;DHT22;6281;49.038;8.372;2023-02-08T09:33:48;3.90;99.90
12434;DHT22;6281;49.038;8.372;2023-02-08T09:36:16;4.00;99.90
12434;DHT22;6281;49.038;8.372;2023-02-08T09:38:44;3.90;99.90
12434;DHT22;6281;49.038;8.372;2023-02-08T09:41:22;3.90;99.90
12434;DHT22;6281;49.038;8.372;2023-02-08T09:44:01;2.20;99.90
12434;DHT22;6281;49.038;8.372;2023-02-08T09:46:32;2.00;99.90
12434;DHT22;6281;49.038;8.372;2023-02-08T09:49:04;1.70;99.90
12434;DHT22;6281;49.038;8.372;2023-02-08T09:51:37;1.40;99.90
12434;DHT22;6281;49.038;8.372;2023-02-08T09:54:09;1.30;99.90
12434;DHT22;6281;49.038;8.372;2023-02-08T09:56:41;1.30;99.90
12434;DHT22;6281;49.038;8.372;2023-02-08T09:59:12;1.30;99.90
12434;DHT22;6281;49.038;8.372;2023-02-08T10:01:44;1.90;99.90
12434;DHT22;6281;49.038;8.372;2023-02-08T10:04:17;2.40;99.90
12434;DHT22;6281;49.038;8.372;2023-02-08T10:06:45;2.10;99.90
12434;DHT22;6281;49.038;8.372;2023-02-08T10:09:13;2.00;99.90
12434;DHT22;6281;49.038;8.372;2023-02-08T10:11:48;2.00;99.90
12434;DHT22;6281;49.038;8.372;2023-02-08T10:14:33;2.00;99.90
12434;DHT22;6281;49.038;8.372;2023-02-08T10:17:13;1.80;99.90
12434;DHT22;6281;49.038;8.372;2023-02-08T10:19:59;2.10;99.90
12434;DHT22;6281;49.038;8.372;2023-02-08T10:22:37;1.90;99.90
12434;DHT22;6281;49.038;8.372;2023-02-08T10:25:23;2.00;99.90
12434;DHT22;6281;49.038;8.372;2023-02-08T10:28:14;2.50;99.90
12434;DHT22;6281;49.038;8.372;2023-02-08T10:30:48;2.40;99.90
12434;DHT22;6281;49.038;8.372;2023-02-08T10:33:25;2.30;99.90
12434;DHT22;6281;49.038;8.372;2023-02-08T10:35:53;2.50;99.90
12434;DHT22;6281;49.038;8.372;2023-02-08T10:38:25;2.80;99.90
12434;DHT22;6281;49.038;8.372;2023-02-08T10:40:55;2.90;99.90
12434;DHT22;6281;49.038;8.372;2023-02-08T10:43:31;2.90;99.90
12434;DHT22;6281;49.038;8.372;2023-02-08T10:46:07;2.80;99.90
12434;DHT22;6281;49.038;8.372;2023-02-08T10:48:47;2.40;99.90
12434;DHT22;6281;49.038;8.372;2023-02-08T10:51:19;2.50;99.90
12434;DHT22;6281;49.038;8.372;2023-02-08T10:53:47;2.70;99.90
12434;DHT22;6281;49.038;8.372;2023-02-08T10:56:40;2.70;99.90
12434;DHT22;6281;49.038;8.372;2023-02-08T10:59:15;2.60;99.90
12434;DHT22;6281;49.038;8.372;2023-02-08T11:01:44;3.20;99.90
12434;DHT22;6281;49.038;8.372;2023-02-08T11:04:15;3.00;99.90
12434;DHT22;6281;49.038;8.372;2023-02-08T11:09:26;4.40;99.90
12434;DHT22;6281;49.038;8.372;2023-02-08T11:11:53;4.60;99.90
12434;DHT22;6281;49.038;8.372;2023-02-08T11:14:24;7.90;75.10
12434;DHT22;6281;49.038;8.372;2023-02-08T11:16:52;8.90;65.00
12434;DHT22;6281;49.038;8.372;2023-02-08T11:19:32;6.60;66.20
12434;DHT22;6281;49.038;8.372;2023-02-08T11:21:59;4.60;95.80
12434;DHT22;6281;49.038;8.372;2023-02-08T11:24:31;4.40;96.00
12434;DHT22;6281;49.038;8.372;2023-02-08T11:27:00;4.30;99.90
12434;DHT22;6281;49.038;8.372;2023-02-08T11:29:28;4.50;99.90
12434;DHT22;6281;49.038;8.372;2023-02-08T11:31:58;4.30;99.60
12434;DHT22;6281;49.038;8.372;2023-02-08T11:34:28;4.10;99.90
12434;DHT22;6281;49.038;8.372;2023-02-08T11:36:58;3.80;99.90
12434;DHT22;6281;49.038;8.372;2023-02-08T11:39:29;3.90;99.90
12434;DHT22;6281;49.038;8.372;2023-02-08T11:42:00;4.10;99.90
12434;DHT22;6281;49.038;8.372;2023-02-08T11:44:29;4.20;99.90
12434;DHT22;6281;49.038;8.372;2023-02-08T11:46:59;4.40;99.90
12434;DHT22;6281;49.038;8.372;2023-02-08T11:49:35;5.40;99.20
12434;DHT22;6281;49.038;8.372;2023-02-08T11:52:04;6.70;71.20
12434;DHT22;6281;49.038;8.372;2023-02-08T11:54:37;5.40;85.20
12434;DHT22;6281;49.038;8.372;2023-02-08T11:57:12;7.10;74.50
12434;DHT22;6281;49.038;8.372;2023-02-08T11:59:39;9.30;60.00
12434;DHT22;6281;49.038;8.372;2023-02-08T12:02:26;6.60;67.90
12434;DHT22;6281;49.038;8.372;2023-02-08T12:04:55;5.60;86.60
12434;DHT22;6281;49.038;8.372;2023-02-08T12:07:33;5.40;94.80
12434;DHT22;6281;49.038;8.372;2023-02-08T12:10:15;7.00;79.20
12434;DHT22;6281;49.038;8.372;2023-02-08T12:13:05;9.50;55.60
12434;DHT22;6281;49.038;8.372;2023-02-08T12:15:44;11.20;51.50
12434;DHT22;6281;49.038;8.372;2023-02-08T12:18:26;12.50;46.40
12434;DHT22;6281;49.038;8.372;2023-02-08T12:21:03;12.70;44.00
12434;DHT22;6281;49.038;8.372;2023-02-08T12:23:49;13.00;45.00
12434;DHT22;6281;49.038;8.372;2023-02-08T12:26:21;11.80;42.80
12434;DHT22;6281;49.038;8.372;2023-02-08T12:29:05;11.30;44.20
12434;DHT22;6281;49.038;8.372;2023-02-08T12:31:48;11.00;46.60
12434;DHT22;6281;49.038;8.372;2023-02-08T12:34:25;10.60;45.50
12434;DHT22;6281;49.038;8.372;2023-02-08T12:37:05;11.60;52.90
12434;DHT22;6281;49.038;8.372;2023-02-08T12:39:59;10.10;47.70
12434;DHT22;6281;49.038;8.372;2023-02-08T12:42:57;11.50;52.30
12434;DHT22;6281;49.038;8.372;2023-02-08T12:45:53;10.10;47.90
12434;DHT22;6281;49.038;8.372;2023-02-08T12:48:33;9.80;49.40
12434;DHT22;6281;49.038;8.372;2023-02-08T12:51:10;9.80;50.90
12434;DHT22;6281;49.038;8.372;2023-02-08T12:53:47;9.90;50.80
12434;DHT22;6281;49.038;8.372;2023-02-08T12:56:19;8.70;51.80
12434;DHT22;6281;49.038;8.372;2023-02-08T12:58:49;9.60;56.60
12434;DHT22;6281;49.038;8.372;2023-02-08T13:01:19;9.80;52.70
12434;DHT22;6281;49.038;8.372;2023-02-08T13:03:50;9.40;52.70
12434;DHT22;6281;49.038;8.372;2023-02-08T13:06:22;9.10;55.30
12434;DHT22;6281;49.038;8.372;2023-02-08T13:08:57;8.10;55.90
12434;DHT22;6281;49.038;8.372;2023-02-08T13:11:31;8.40;55.60
12434;DHT22;6281;49.038;8.372;2023-02-08T13:14:03;9.10;55.80
12434;DHT22;6281;49.038;8.372;2023-02-08T13:16:34;9.00;55.00
12434;DHT22;6281;49.038;8.372;2023-02-08T13:21:52;9.20;56.60
12434;DHT22;6281;49.038;8.372;2023-02-08T13:24:28;9.90;54.60
12434;DHT22;6281;49.038;8.372;2023-02-08T13:26:57;9.80;55.40
12434;DHT22;6281;49.038;8.372;2023-02-08T13:29:24;10.50;52.50
12434;DHT22;6281;49.038;8.372;2023-02-08T13:31:57;10.50;52.50
12434;DHT22;6281;49.038;8.372;2023-02-08T13:34:30;9.90;52.10
12434;DHT22;6281;49.038;8.372;2023-02-08T13:37:00;9.20;54.30
12434;DHT22;6281;49.038;8.372;2023-02-08T13:39:40;8.70;55.20
12434;DHT22;6281;49.038;8.372;2023-02-08T13:42:18;8.80;56.90
12434;DHT22;6281;49.038;8.372;2023-02-08T13:44:53;9.30;58.90
12434;DHT22;6281;49.038;8.372;2023-02-08T13:47:25;9.60;57.20
12434;DHT22;6281;49.038;8.372;2023-02-08T13:49:56;8.80;52.90
12434;DHT22;6281;49.038;8.372;2023-02-08T13:52:47;9.00;56.40
12434;DHT22;6281;49.038;8.372;2023-02-08T14:01:29;8.30;54.70
12434;DHT22;6281;49.038;8.372;2023-02-08T14:04:25;7.90;55.90
12434;DHT22;6281;49.038;8.372;2023-02-08T14:06:56;8.00;57.00
12434;DHT22;6281;49.038;8.372;2023-02-08T14:09:30;7.50;60.00
12434;DHT22;6281;49.038;8.372;2023-02-08T14:12:05;8.10;58.00
12434;DHT22;6281;49.038;8.372;2023-02-08T14:14:37;7.80;63.30
12434;DHT22;6281;49.038;8.372;2023-02-08T14:17:20;7.50;59.90
12434;DHT22;6281;49.038;8.372;2023-02-08T14:19:57;7.30;58.60
12434;DHT22;6281;49.038;8.372;2023-02-08T14:22:27;7.40;58.90
12434;DHT22;6281;49.038;8.372;2023-02-08T14:25:01;6.70;59.50
12434;DHT22;6281;49.038;8.372;2023-02-08T14:27:34;6.90;69.00
12434;DHT22;6281;49.038;8.372;2023-02-08T14:30:06;7.70;67.00
12434;DHT22;6281;49.038;8.372;2023-02-08T14:32:36;7.60;60.20
12434;DHT22;6281;49.038;8.372;2023-02-08T14:35:07;7.10;59.40
12434;DHT22;6281;49.038;8.372;2023-02-08T14:37:35;7.00;60.60
12434;DHT22;6281;49.038;8.372;2023-02-08T14:43:27;6.90;63.60
12434;DHT22;6281;49.038;8.372;2023-02-08T14:45:55;6.90;60.50
12434;DHT22;6281;49.038;8.372;2023-02-08T14:48:23;6.80;61.70
12434;DHT22;6281;49.038;8.372;2023-02-08T14:51:13;6.80;61.30
12434;DHT22;6281;49.038;8.372;2023-02-08T14:53:48;7.00;62.70
12434;DHT22;6281;49.038;8.372;2023-02-08T14:56:20;7.40;60.20
12434;DHT22;6281;49.038;8.372;2023-02-08T14:58:50;8.00;61.00
12434;DHT22;6281;49.038;8.372;2023-02-08T15:01:21;8.10;58.00
12434;DHT22;6281;49.038;8.372;2023-02-08T15:03:54;8.60;59.50
12434;DHT22;6281;49.038;8.372;2023-02-08T15:07:01;8.40;59.30
12434;DHT22;6281;49.038;8.372;2023-02-08T15:09:35;8.00;56.90
12434;DHT22;6281;49.038;8.372;2023-02-08T15:12:06;8.30;57.10
12434;DHT22;6281;49.038;8.372;2023-02-08T15:14:39;7.80;57.80
12434;DHT22;6281;49.038;8.372;2023-02-08T15:17:18;7.70;57.40
12434;DHT22;6281;49.038;8.372;2023-02-08T15:19:46;7.60;57.50
12434;DHT22;6281;49.038;8.372;2023-02-08T15:22:18;7.40;57.10
12434;DHT22;6281;49.038;8.372;2023-02-08T15:24:49;7.60;59.40
12434;DHT22;6281;49.038;8.372;2023-02-08T15:27:20;7.70;58.10
12434;DHT22;6281;49.038;8.372;2023-02-08T15:29:47;7.50;57.20
12434;DHT22;6281;49.038;8.372;2023-02-08T15:32:17;7.60;60.30
12434;DHT22;6281;49.038;8.372;2023-02-08T15:34:53;6.90;57.20
12434;DHT22;6281;49.038;8.372;2023-02-08T15:37:21;6.90;59.60
12434;DHT22;6281;49.038;8.372;2023-02-08T15:39:50;7.00;61.90
12434;DHT22;6281;49.038;8.372;2023-02-08T15:42:21;6.90;63.20
12434;DHT22;6281;49.038;8.372;2023-02-08T15:44:49;6.90;59.60
12434;DHT22;6281;49.038;8.372;2023-02-08T15:47:21;6.90;59.70
12434;DHT22;6281;49.038;8.372;2023-02-08T15:49:51;7.00;66.10
12434;DHT22;6281;49.038;8.372;2023-02-08T15:52:22;6.80;63.50
12434;DHT22;6281;49.038;8.372;2023-02-08T15:54:50;6.40;65.90
12434;DHT22;6281;49.038;8.372;2023-02-08T15:57:21;6.30;68.10
12434;DHT22;6281;49.038;8.372;2023-02-08T15:59:52;6.10;66.60
12434;DHT22;6281;49.038;8.372;2023-02-08T16:02:27;6.10;76.30
12434;DHT22;6281;49.038;8.372;2023-02-08T16:04:56;5.70;69.70
12434;DHT22;6281;49.038;8.372;2023-02-08T16:07:27;5.50;70.30
12434;DHT22;6281;49.038;8.372;2023-02-08T16:09:55;5.50;72.70
12434;DHT22;6281;49.038;8.372;2023-02-08T16:12:24;5.40;73.80
12434;DHT22;6281;49.038;8.372;2023-02-08T16:14:52;5.40;79.50
12434;DHT22;6281;49.038;8.372;2023-02-08T16:17:42;5.40;77.30
12434;DHT22;6281;49.038;8.372;2023-02-08T16:20:24;5.30;83.00
12434;DHT22;6281;49.038;8.372;2023-02-08T16:22:56;5.00;83.20
12434;DHT22;6281;49.038;8.372;2023-02-08T16:25:33;4.90;82.20
12434;DHT22;6281;49.038;8.372;2023-02-08T16:28:00;4.70;85.00
12434;DHT22;6281;49.038;8.372;2023-02-08T16:30:27;4.60;84.30
12434;DHT22;6281;49.038;8.372;2023-02-08T16:32:55;4.50;88.20
12434;DHT22;6281;49.038;8.372;2023-02-08T16:35:25;4.60;90.10